createdAt,value
2023-04-25T00:02:20.424Z,20.35
2023-04-25T00:07:22.524Z,18.92
2023-04-25T00:12:24.533Z,19.52
2023-04-25T00:17:27.795Z,23.83
2023-04-25T00:22:29.905Z,20.13
2023-04-25T00:27:31.964Z,21.60
2023-04-25T00:32:34.068Z,19.95
2023-04-25T00:37:36.780Z,18.55
2023-04-25T00:42:38.925Z,18.08
2023-04-25T00:47:41.419Z,19.85
2023-04-25T00:52:45.621Z,17.52
2023-04-25T00:57:47.911Z,19.52
2023-04-25T01:02:51.307Z,22.52
2023-04-25T01:07:53.505Z,23.83
2023-04-25T01:12:55.701Z,15.80
2023-04-25T01:17:59.277Z,20.23
2023-04-25T01:23:03.257Z,22.88
2023-04-25T01:28:06.039Z,25.17
2023-04-25T01:33:09.379Z,21.58
2023-04-25T01:38:13.078Z,17.52
2023-04-25T01:43:15.567Z,23.73
2023-04-25T01:48:17.760Z,24.30
2023-04-25T01:53:19.961Z,18.63
2023-04-25T01:58:22.766Z,20.75
2023-04-25T02:03:44.126Z,22.70
2023-04-25T02:08:55.456Z,25.48
2023-04-25T02:13:58.100Z,17.77
2023-04-25T02:19:12.922Z,21.00
2023-04-25T02:24:15.522Z,20.17
2023-04-25T02:29:17.592Z,24.60
2023-04-25T02:34:19.951Z,17.48
2023-04-25T02:39:23.156Z,21.33
2023-04-25T02:44:25.276Z,26.15
2023-04-25T02:49:27.323Z,19.33
2023-04-25T02:54:29.629Z,17.38
2023-04-25T02:59:32.805Z,17.02
2023-04-25T03:04:34.891Z,17.13
2023-04-25T03:09:37.275Z,21.33
2023-04-25T03:14:39.618Z,24.75
2023-04-25T03:19:41.768Z,17.73
2023-04-25T03:24:43.853Z,19.70
2023-04-25T03:29:45.919Z,20.85
2023-04-25T03:34:48.335Z,23.85
2023-04-25T03:39:50.555Z,24.95
2023-04-25T03:44:53.565Z,23.65
2023-04-25T03:49:56.667Z,22.10
2023-04-25T03:55:00.924Z,20.10
2023-04-25T04:00:05.765Z,23.02
2023-04-25T04:05:15.538Z,24.23
2023-04-25T04:10:24.679Z,28.90
2023-04-25T04:15:26.749Z,32.45
2023-04-25T04:20:33.875Z,24.73
2023-04-25T04:25:36.504Z,28.98
2023-04-25T04:30:49.076Z,23.10
2023-04-25T04:35:53.246Z,14.07
2023-04-25T04:40:56.757Z,17.45
2023-04-25T04:46:19.364Z,23.25
2023-04-25T04:51:48.419Z,15.73
2023-04-25T04:57:09.281Z,17.20
2023-04-25T05:02:19.151Z,13.30
2023-04-25T05:07:32.933Z,14.48
2023-04-25T05:12:46.016Z,14.30
2023-04-25T05:18:17.716Z,13.23
2023-04-25T05:23:36.187Z,13.40
2023-04-25T05:29:01.394Z,14.98
2023-04-25T05:34:42.928Z,10.25
2023-04-25T05:39:54.210Z,13.77
2023-04-25T05:45:14.925Z,18.10
2023-04-25T05:50:45.964Z,12.53
2023-04-25T05:56:09.379Z,13.52
2023-04-25T06:01:13.601Z,11.80
2023-04-25T06:06:15.855Z,18.05
2023-04-25T06:11:18.037Z,19.40
2023-04-25T06:16:20.409Z,15.27
2023-04-25T06:21:22.463Z,10.52
2023-04-25T06:26:26.903Z,17.63
2023-04-25T06:31:30.026Z,16.35
2023-04-25T06:36:32.673Z,14.68
2023-04-25T06:41:40.817Z,17.40
2023-04-25T06:46:50.796Z,12.95
2023-04-25T06:51:53.041Z,15.80
2023-04-25T06:56:55.555Z,15.63
2023-04-25T07:01:57.841Z,13.27
2023-04-25T07:07:03.653Z,11.20
2023-04-25T07:12:27.644Z,9.52
2023-04-25T07:17:29.853Z,12.30
2023-04-25T07:22:33.456Z,9.13
2023-04-25T07:27:35.544Z,13.73
2023-04-25T07:32:44.048Z,10.55
2023-04-25T07:37:46.079Z,13.55
2023-04-25T07:42:51.229Z,10.85
2023-04-25T07:47:59.861Z,9.45
2023-04-25T07:53:02.963Z,10.77
2023-04-25T07:58:12.783Z,9.93
2023-04-25T08:03:17.265Z,8.13
2023-04-25T08:08:20.161Z,9.05
2023-04-25T08:13:23.066Z,30.05
2023-04-25T08:18:25.431Z,7.68
2023-04-25T08:23:28.919Z,8.32
2023-04-25T08:28:47.502Z,10.10
2023-04-25T08:33:50.466Z,10.65
2023-04-25T08:39:08.865Z,7.22
2023-04-25T08:44:27.377Z,6.95
2023-04-25T08:49:30.521Z,10.13
2023-04-25T08:54:35.338Z,7.88
2023-04-25T08:59:44.027Z,12.10
2023-04-25T09:04:46.357Z,12.55
2023-04-25T09:09:49.406Z,10.80
2023-04-25T09:15:08.625Z,9.52
2023-04-25T09:20:56.370Z,11.63
2023-04-25T09:26:03.782Z,5.43
2023-04-25T09:31:06.303Z,9.10
2023-04-25T09:36:14.163Z,8.75
2023-04-25T09:41:39.495Z,9.18
2023-04-25T09:46:42.374Z,5.70
2023-04-25T09:51:59.901Z,8.13
2023-04-25T09:57:12.504Z,7.95
2023-04-25T10:02:17.949Z,6.85
2023-04-25T10:07:26.647Z,14.52
2023-04-25T10:12:29.182Z,5.28
2023-04-25T10:17:32.640Z,8.20
2023-04-25T10:22:45.841Z,6.90
2023-04-25T10:27:47.924Z,7.15
2023-04-25T10:32:51.536Z,8.68
2023-04-25T10:38:14.599Z,9.40
2023-04-25T10:43:32.083Z,8.15
2023-04-25T10:48:35.580Z,5.35
2023-04-25T10:53:38.315Z,6.95
2023-04-25T10:58:44.713Z,6.90
2023-04-25T11:03:50.315Z,7.95
2023-04-25T11:08:52.765Z,4.45
2023-04-25T11:13:55.122Z,7.88
2023-04-25T11:18:58.617Z,6.05
2023-04-25T11:24:01.888Z,8.95
2023-04-25T11:29:04.273Z,10.43
2023-04-25T11:34:06.459Z,5.20
2023-04-25T11:39:08.557Z,8.85
2023-04-25T11:44:10.785Z,4.32
2023-04-25T11:49:13.481Z,7.25
2023-04-25T11:54:16.299Z,4.70
2023-04-25T11:59:24.525Z,4.63
2023-04-25T12:04:26.995Z,5.65
2023-04-25T12:09:34.141Z,10.05
2023-04-25T12:14:36.879Z,6.72
2023-04-25T12:19:42.297Z,7.20
2023-04-25T12:24:45.889Z,10.27
2023-04-25T12:29:57.860Z,6.38
2023-04-25T12:34:59.936Z,7.28
2023-04-25T12:40:02.191Z,8.93
2023-04-25T12:45:04.515Z,8.27
2023-04-25T12:50:07.054Z,7.68
2023-04-25T12:55:09.310Z,6.45
2023-04-25T13:00:15.619Z,7.20
2023-04-25T13:05:17.706Z,5.25
2023-04-25T13:10:19.898Z,6.07
2023-04-25T13:15:22.875Z,5.35
2023-04-25T13:20:24.957Z,5.78
2023-04-25T13:25:27.068Z,8.35
2023-04-25T13:30:29.403Z,5.47
2023-04-25T13:35:31.836Z,7.78
2023-04-25T13:40:34.030Z,7.28
2023-04-25T13:45:36.379Z,8.23
2023-04-25T13:50:38.659Z,6.45
2023-04-25T13:55:40.787Z,6.28
2023-04-25T14:00:44.429Z,6.63
2023-04-25T14:05:46.622Z,5.50
2023-04-25T14:10:48.663Z,7.90
2023-04-25T14:15:51.486Z,8.68
2023-04-25T14:20:53.602Z,4.43
2023-04-25T14:25:55.839Z,6.15
2023-04-25T14:30:57.867Z,5.60
2023-04-25T14:36:00.120Z,6.20
2023-04-25T14:41:02.272Z,3.80
2023-04-25T14:46:04.413Z,8.77
2023-04-25T14:51:06.625Z,6.78
2023-04-25T14:56:09.704Z,7.72
2023-04-25T15:01:12.487Z,8.27
2023-04-25T15:06:15.090Z,5.82
2023-04-25T15:11:17.339Z,8.68
2023-04-25T15:16:19.469Z,10.10
2023-04-25T15:21:22.564Z,7.95
2023-04-25T15:26:24.669Z,5.45
2023-04-25T15:31:26.984Z,7.03
2023-04-25T15:36:29.131Z,11.18
2023-04-25T15:41:31.191Z,7.53
2023-04-25T15:46:33.312Z,6.32
2023-04-25T15:51:35.856Z,8.75
2023-04-25T15:56:37.934Z,5.50
2023-04-25T16:01:40.403Z,5.85
2023-04-25T16:06:42.476Z,4.78
2023-04-25T16:11:44.546Z,10.50
2023-04-25T16:16:46.904Z,9.10
2023-04-25T16:21:49.332Z,6.47
2023-04-25T16:26:51.477Z,6.95
2023-04-25T16:31:53.618Z,7.25
2023-04-25T16:36:56.728Z,6.63
2023-04-25T16:41:58.963Z,5.15
2023-04-25T16:47:01.436Z,4.50
2023-04-25T16:52:03.833Z,8.25
2023-04-25T16:57:06.960Z,5.90
2023-04-25T17:02:12.884Z,6.18
2023-04-25T17:07:15.945Z,6.00
2023-04-25T17:12:19.711Z,8.23
2023-04-25T17:17:21.790Z,10.27
2023-04-25T17:22:24.477Z,10.77
2023-04-25T17:27:26.769Z,7.80
2023-04-25T17:32:28.888Z,5.82
2023-04-25T17:37:31.661Z,6.10
2023-04-25T17:42:33.815Z,4.68
2023-04-25T17:47:36.058Z,7.05
2023-04-25T17:52:38.545Z,9.80
2023-04-25T17:57:40.740Z,5.40
2023-04-25T18:02:45.367Z,4.38
2023-04-25T18:07:47.537Z,6.05
2023-04-25T18:12:50.678Z,9.30
2023-04-25T18:17:52.790Z,9.13
2023-04-25T18:22:54.890Z,10.77
2023-04-25T18:27:57.433Z,9.23
2023-04-25T18:32:59.591Z,12.10
2023-04-25T18:38:01.621Z,9.23
2023-04-25T18:43:03.823Z,8.05
2023-04-25T18:48:05.924Z,5.97
2023-04-25T18:53:08.553Z,8.20
2023-04-25T18:58:10.529Z,6.72
2023-04-25T19:03:12.751Z,6.95
2023-04-25T19:08:14.939Z,8.35
2023-04-25T19:13:20.820Z,9.80
2023-04-25T19:18:23.120Z,5.47
2023-04-25T19:23:26.258Z,5.63
2023-04-25T19:28:29.743Z,14.07
2023-04-25T19:33:31.738Z,10.23
2023-04-25T19:38:33.751Z,12.48
2023-04-25T19:43:35.896Z,9.52
2023-04-25T19:48:38.112Z,9.60
2023-04-25T19:53:40.135Z,8.52
2023-04-25T19:58:42.806Z,8.23
2023-04-25T20:03:45.377Z,15.80
2023-04-25T20:08:47.555Z,11.27
2023-04-25T20:13:50.112Z,9.55
2023-04-25T20:18:53.167Z,7.50
2023-04-25T20:23:56.180Z,11.25
2023-04-25T20:28:58.580Z,12.20
2023-04-25T20:34:01.028Z,11.25
2023-04-25T20:39:04.495Z,10.35
2023-04-25T20:44:11.543Z,10.35
2023-04-25T20:49:13.594Z,15.27
2023-04-25T20:54:15.669Z,11.15
2023-04-25T20:59:17.683Z,11.45
2023-04-25T21:04:20.917Z,14.80
2023-04-25T21:09:23.051Z,11.88
2023-04-25T21:14:25.775Z,9.73
2023-04-25T21:19:27.938Z,10.85
2023-04-25T21:24:32.756Z,12.52
2023-04-25T21:29:34.821Z,10.93
2023-04-25T21:34:36.931Z,13.38
2023-04-25T21:39:38.915Z,12.30
2023-04-25T21:44:41.070Z,12.35
2023-04-25T21:49:43.162Z,13.38
2023-04-25T21:54:45.511Z,12.05
2023-04-25T21:59:48.144Z,13.73
2023-04-25T22:04:50.647Z,12.65
2023-04-25T22:09:55.383Z,15.13
2023-04-25T22:14:58.320Z,11.27
2023-04-25T22:20:02.521Z,15.00
2023-04-25T22:25:04.888Z,11.65
2023-04-25T22:30:12.715Z,11.35
2023-04-25T22:35:14.785Z,15.35
2023-04-25T22:40:16.816Z,10.90
2023-04-25T22:45:18.966Z,14.77
2023-04-25T22:50:21.077Z,13.20
2023-04-25T22:55:23.297Z,12.73
2023-04-25T23:00:28.961Z,11.75
2023-04-25T23:05:31.591Z,11.95
2023-04-25T23:10:33.612Z,14.15
2023-04-25T23:15:35.769Z,9.98
2023-04-25T23:20:37.853Z,13.50
2023-04-25T23:25:40.185Z,9.32
2023-04-25T23:30:42.293Z,12.00
2023-04-25T23:35:44.380Z,12.48
2023-04-25T23:40:47.066Z,11.57
2023-04-25T23:45:49.413Z,14.27
2023-04-25T23:50:51.731Z,11.45
2023-04-25T23:55:54.820Z,13.15
